sensor_id;sensor_type;location;lat;lon;timestamp;P1;durP1;ratioP1;P2;durP2;ratioP2
56927;SDS011;60850;52.502;13.426;2023-05-07T00:01:34;15.35;;;9.38;;
56927;SDS011;60850;52.502;13.426;2023-05-07T00:04:02;17.20;;;9.70;;
56927;SDS011;60850;52.502;13.426;2023-05-07T00:06:29;14.95;;;9.32;;
56927;SDS011;60850;52.502;13.426;2023-05-07T00:08:58;17.33;;;9.73;;
56927;SDS011;60850;52.502;13.426;2023-05-07T00:11:26;13.70;;;9.13;;
56927;SDS011;60850;52.502;13.426;2023-05-07T00:13:53;15.82;;;9.27;;
56927;SDS011;60850;52.502;13.426;2023-05-07T00:16:20;14.57;;;9.18;;
56927;SDS011;60850;52.502;13.426;2023-05-07T00:18:47;16.42;;;9.68;;
56927;SDS011;60850;52.502;13.426;2023-05-07T00:21:16;15.40;;;9.85;;
56927;SDS011;60850;52.502;13.426;2023-05-07T00:23:43;13.75;;;8.40;;
56927;SDS011;60850;52.502;13.426;2023-05-07T00:26:10;13.93;;;8.95;;
56927;SDS011;60850;52.502;13.426;2023-05-07T00:28:36;13.05;;;8.48;;
56927;SDS011;60850;52.502;13.426;2023-05-07T00:31:03;13.07;;;7.93;;
56927;SDS011;60850;52.502;13.426;2023-05-07T00:33:30;13.82;;;8.75;;
56927;SDS011;60850;52.502;13.426;2023-05-07T00:35:57;14.02;;;8.68;;
56927;SDS011;60850;52.502;13.426;2023-05-07T00:38:28;13.52;;;8.80;;
56927;SDS011;60850;52.502;13.426;2023-05-07T00:40:55;17.45;;;9.30;;
56927;SDS011;60850;52.502;13.426;2023-05-07T00:43:22;13.77;;;8.50;;
56927;SDS011;60850;52.502;13.426;2023-05-07T00:45:49;16.63;;;9.48;;
56927;SDS011;60850;52.502;13.426;2023-05-07T00:48:16;13.95;;;9.50;;
56927;SDS011;60850;52.502;13.426;2023-05-07T00:50:43;11.18;;;8.55;;
56927;SDS011;60850;52.502;13.426;2023-05-07T00:53:11;12.38;;;8.77;;
56927;SDS011;60850;52.502;13.426;2023-05-07T00:55:39;11.35;;;8.60;;
56927;SDS011;60850;52.502;13.426;2023-05-07T00:58:06;15.32;;;8.88;;
56927;SDS011;60850;52.502;13.426;2023-05-07T01:00:33;14.23;;;9.10;;
56927;SDS011;60850;52.502;13.426;2023-05-07T01:03:01;15.98;;;9.55;;
56927;SDS011;60850;52.502;13.426;2023-05-07T01:05:28;15.10;;;8.85;;
56927;SDS011;60850;52.502;13.426;2023-05-07T01:07:55;12.65;;;8.45;;
56927;SDS011;60850;52.502;13.426;2023-05-07T01:10:24;13.05;;;9.60;;
56927;SDS011;60850;52.502;13.426;2023-05-07T01:12:53;13.30;;;8.65;;
56927;SDS011;60850;52.502;13.426;2023-05-07T01:15:20;12.48;;;9.30;;
56927;SDS011;60850;52.502;13.426;2023-05-07T01:17:47;15.00;;;9.52;;
56927;SDS011;60850;52.502;13.426;2023-05-07T01:20:14;12.07;;;8.23;;
56927;SDS011;60850;52.502;13.426;2023-05-07T01:22:42;14.18;;;9.13;;
56927;SDS011;60850;52.502;13.426;2023-05-07T01:25:10;15.52;;;9.05;;
56927;SDS011;60850;52.502;13.426;2023-05-07T01:27:36;14.25;;;8.85;;
56927;SDS011;60850;52.502;13.426;2023-05-07T01:30:04;14.35;;;8.55;;
56927;SDS011;60850;52.502;13.426;2023-05-07T01:32:33;13.13;;;8.40;;
56927;SDS011;60850;52.502;13.426;2023-05-07T01:35:06;17.88;;;8.98;;
56927;SDS011;60850;52.502;13.426;2023-05-07T01:37:35;12.07;;;8.55;;
56927;SDS011;60850;52.502;13.426;2023-05-07T01:40:11;12.63;;;8.13;;
56927;SDS011;60850;52.502;13.426;2023-05-07T01:42:38;11.57;;;8.45;;
56927;SDS011;60850;52.502;13.426;2023-05-07T01:45:06;13.25;;;8.30;;
56927;SDS011;60850;52.502;13.426;2023-05-07T01:47:33;10.90;;;7.70;;
56927;SDS011;60850;52.502;13.426;2023-05-07T01:50:01;13.40;;;8.32;;
56927;SDS011;60850;52.502;13.426;2023-05-07T01:52:27;12.63;;;8.55;;
56927;SDS011;60850;52.502;13.426;2023-05-07T01:54:55;9.18;;;7.10;;
56927;SDS011;60850;52.502;13.426;2023-05-07T01:57:23;13.52;;;8.30;;
56927;SDS011;60850;52.502;13.426;2023-05-07T01:59:50;12.18;;;8.05;;
56927;SDS011;60850;52.502;13.426;2023-05-07T02:02:17;12.38;;;8.00;;
56927;SDS011;60850;52.502;13.426;2023-05-07T02:04:44;12.23;;;8.07;;
56927;SDS011;60850;52.502;13.426;2023-05-07T02:07:11;11.93;;;8.05;;
56927;SDS011;60850;52.502;13.426;2023-05-07T02:09:38;17.17;;;8.75;;
56927;SDS011;60850;52.502;13.426;2023-05-07T02:12:05;11.10;;;8.13;;
56927;SDS011;60850;52.502;13.426;2023-05-07T02:14:33;14.82;;;8.00;;
56927;SDS011;60850;52.502;13.426;2023-05-07T02:17:00;12.68;;;8.07;;
56927;SDS011;60850;52.502;13.426;2023-05-07T02:19:27;10.82;;;7.65;;
56927;SDS011;60850;52.502;13.426;2023-05-07T02:21:54;13.32;;;7.93;;
56927;SDS011;60850;52.502;13.426;2023-05-07T02:24:21;13.18;;;8.30;;
56927;SDS011;60850;52.502;13.426;2023-05-07T02:26:48;10.63;;;7.88;;
56927;SDS011;60850;52.502;13.426;2023-05-07T02:29:15;13.00;;;8.57;;
56927;SDS011;60850;52.502;13.426;2023-05-07T02:31:43;14.15;;;8.77;;
56927;SDS011;60850;52.502;13.426;2023-05-07T02:34:10;13.55;;;8.65;;
56927;SDS011;60850;52.502;13.426;2023-05-07T02:36:36;12.30;;;8.48;;
56927;SDS011;60850;52.502;13.426;2023-05-07T02:39:03;14.50;;;9.00;;
56927;SDS011;60850;52.502;13.426;2023-05-07T02:41:30;12.63;;;8.23;;
56927;SDS011;60850;52.502;13.426;2023-05-07T02:43:57;13.68;;;8.15;;
56927;SDS011;60850;52.502;13.426;2023-05-07T02:46:24;14.20;;;8.50;;
56927;SDS011;60850;52.502;13.426;2023-05-07T02:48:52;14.27;;;8.80;;
56927;SDS011;60850;52.502;13.426;2023-05-07T02:51:20;11.20;;;7.57;;
56927;SDS011;60850;52.502;13.426;2023-05-07T02:53:48;11.50;;;7.97;;
56927;SDS011;60850;52.502;13.426;2023-05-07T02:56:15;13.50;;;8.48;;
56927;SDS011;60850;52.502;13.426;2023-05-07T02:58:42;15.63;;;8.43;;
56927;SDS011;60850;52.502;13.426;2023-05-07T03:01:09;11.77;;;7.90;;
56927;SDS011;60850;52.502;13.426;2023-05-07T03:03:37;10.10;;;7.80;;
56927;SDS011;60850;52.502;13.426;2023-05-07T03:06:05;13.75;;;7.55;;
56927;SDS011;60850;52.502;13.426;2023-05-07T03:08:33;11.23;;;7.70;;
56927;SDS011;60850;52.502;13.426;2023-05-07T03:10:59;14.05;;;8.32;;
56927;SDS011;60850;52.502;13.426;2023-05-07T03:13:26;13.35;;;8.32;;
56927;SDS011;60850;52.502;13.426;2023-05-07T03:15:53;12.20;;;7.68;;
56927;SDS011;60850;52.502;13.426;2023-05-07T03:18:20;10.80;;;7.72;;
56927;SDS011;60850;52.502;13.426;2023-05-07T03:20:47;14.52;;;8.02;;
56927;SDS011;60850;52.502;13.426;2023-05-07T03:23:16;12.15;;;7.88;;
56927;SDS011;60850;52.502;13.426;2023-05-07T03:25:43;12.30;;;7.72;;
56927;SDS011;60850;52.502;13.426;2023-05-07T03:28:10;14.73;;;8.02;;
56927;SDS011;60850;52.502;13.426;2023-05-07T03:30:36;13.65;;;7.88;;
56927;SDS011;60850;52.502;13.426;2023-05-07T03:33:03;11.93;;;7.13;;
56927;SDS011;60850;52.502;13.426;2023-05-07T03:35:30;9.93;;;7.65;;
56927;SDS011;60850;52.502;13.426;2023-05-07T03:37:57;12.25;;;7.88;;
56927;SDS011;60850;52.502;13.426;2023-05-07T03:40:25;13.75;;;8.32;;
56927;SDS011;60850;52.502;13.426;2023-05-07T03:42:52;11.05;;;7.57;;
56927;SDS011;60850;52.502;13.426;2023-05-07T03:45:19;12.48;;;8.07;;
56927;SDS011;60850;52.502;13.426;2023-05-07T03:47:46;13.23;;;8.25;;
56927;SDS011;60850;52.502;13.426;2023-05-07T03:50:13;13.27;;;8.20;;
56927;SDS011;60850;52.502;13.426;2023-05-07T03:52:40;11.38;;;7.90;;
56927;SDS011;60850;52.502;13.426;2023-05-07T03:55:07;12.38;;;7.95;;
56927;SDS011;60850;52.502;13.426;2023-05-07T03:57:36;11.68;;;7.97;;
56927;SDS011;60850;52.502;13.426;2023-05-07T04:00:03;12.52;;;7.82;;
56927;SDS011;60850;52.502;13.426;2023-05-07T04:02:32;10.32;;;7.40;;
56927;SDS011;60850;52.502;13.426;2023-05-07T04:04:59;11.80;;;7.60;;
56927;SDS011;60850;52.502;13.426;2023-05-07T04:07:26;13.23;;;7.53;;
56927;SDS011;60850;52.502;13.426;2023-05-07T04:09:53;11.85;;;7.10;;
56927;SDS011;60850;52.502;13.426;2023-05-07T04:12:20;10.90;;;7.28;;
56927;SDS011;60850;52.502;13.426;2023-05-07T04:14:48;10.23;;;6.90;;
56927;SDS011;60850;52.502;13.426;2023-05-07T04:17:15;10.00;;;7.07;;
56927;SDS011;60850;52.502;13.426;2023-05-07T04:19:42;10.77;;;7.65;;
56927;SDS011;60850;52.502;13.426;2023-05-07T04:22:10;12.73;;;7.90;;
56927;SDS011;60850;52.502;13.426;2023-05-07T04:24:37;11.43;;;6.95;;
56927;SDS011;60850;52.502;13.426;2023-05-07T04:27:05;9.88;;;7.00;;
56927;SDS011;60850;52.502;13.426;2023-05-07T04:29:31;10.73;;;7.25;;
56927;SDS011;60850;52.502;13.426;2023-05-07T04:32:00;11.63;;;7.72;;
56927;SDS011;60850;52.502;13.426;2023-05-07T04:34:26;10.50;;;7.07;;
56927;SDS011;60850;52.502;13.426;2023-05-07T04:36:53;10.30;;;7.15;;
56927;SDS011;60850;52.502;13.426;2023-05-07T04:39:20;10.57;;;7.10;;
56927;SDS011;60850;52.502;13.426;2023-05-07T04:41:47;9.43;;;6.53;;
56927;SDS011;60850;52.502;13.426;2023-05-07T04:44:14;12.20;;;6.57;;
56927;SDS011;60850;52.502;13.426;2023-05-07T04:46:42;10.07;;;7.10;;
56927;SDS011;60850;52.502;13.426;2023-05-07T04:49:10;11.52;;;6.70;;
56927;SDS011;60850;52.502;13.426;2023-05-07T04:51:37;9.65;;;6.22;;
56927;SDS011;60850;52.502;13.426;2023-05-07T04:54:07;9.93;;;6.22;;
56927;SDS011;60850;52.502;13.426;2023-05-07T04:56:34;9.85;;;6.57;;
56927;SDS011;60850;52.502;13.426;2023-05-07T04:59:01;9.32;;;6.20;;
56927;SDS011;60850;52.502;13.426;2023-05-07T05:01:28;9.25;;;6.28;;
56927;SDS011;60850;52.502;13.426;2023-05-07T05:03:55;8.00;;;5.82;;
56927;SDS011;60850;52.502;13.426;2023-05-07T05:06:23;9.10;;;5.70;;
56927;SDS011;60850;52.502;13.426;2023-05-07T05:08:50;8.68;;;5.63;;
56927;SDS011;60850;52.502;13.426;2023-05-07T05:11:17;8.60;;;5.55;;
56927;SDS011;60850;52.502;13.426;2023-05-07T05:13:44;7.13;;;5.20;;
56927;SDS011;60850;52.502;13.426;2023-05-07T05:16:13;9.77;;;5.43;;
56927;SDS011;60850;52.502;13.426;2023-05-07T05:18:40;7.85;;;5.07;;
56927;SDS011;60850;52.502;13.426;2023-05-07T05:21:07;7.60;;;5.18;;
56927;SDS011;60850;52.502;13.426;2023-05-07T05:23:35;7.47;;;5.53;;
56927;SDS011;60850;52.502;13.426;2023-05-07T05:26:02;8.65;;;5.53;;
56927;SDS011;60850;52.502;13.426;2023-05-07T05:28:29;8.48;;;5.50;;
56927;SDS011;60850;52.502;13.426;2023-05-07T05:30:56;7.75;;;5.95;;
56927;SDS011;60850;52.502;13.426;2023-05-07T05:33:23;7.55;;;5.38;;
56927;SDS011;60850;52.502;13.426;2023-05-07T05:35:50;9.02;;;5.55;;
56927;SDS011;60850;52.502;13.426;2023-05-07T05:38:17;7.70;;;5.68;;
56927;SDS011;60850;52.502;13.426;2023-05-07T05:40:45;9.10;;;5.63;;
56927;SDS011;60850;52.502;13.426;2023-05-07T05:43:12;9.27;;;5.40;;
56927;SDS011;60850;52.502;13.426;2023-05-07T05:45:39;10.40;;;6.32;;
56927;SDS011;60850;52.502;13.426;2023-05-07T05:48:06;7.95;;;5.30;;
56927;SDS011;60850;52.502;13.426;2023-05-07T05:50:33;11.70;;;6.20;;
56927;SDS011;60850;52.502;13.426;2023-05-07T05:53:01;8.48;;;5.72;;
56927;SDS011;60850;52.502;13.426;2023-05-07T05:55:28;9.75;;;5.68;;
56927;SDS011;60850;52.502;13.426;2023-05-07T05:57:58;8.13;;;6.10;;
56927;SDS011;60850;52.502;13.426;2023-05-07T06:00:26;7.68;;;5.25;;
56927;SDS011;60850;52.502;13.426;2023-05-07T06:02:53;10.05;;;5.32;;
56927;SDS011;60850;52.502;13.426;2023-05-07T06:05:20;8.50;;;5.85;;
56927;SDS011;60850;52.502;13.426;2023-05-07T06:07:47;8.70;;;5.40;;
56927;SDS011;60850;52.502;13.426;2023-05-07T06:10:14;8.00;;;5.32;;
56927;SDS011;60850;52.502;13.426;2023-05-07T06:12:40;7.45;;;5.63;;
56927;SDS011;60850;52.502;13.426;2023-05-07T06:15:09;8.88;;;5.47;;
56927;SDS011;60850;52.502;13.426;2023-05-07T06:17:36;7.68;;;5.55;;
56927;SDS011;60850;52.502;13.426;2023-05-07T06:20:04;9.00;;;5.68;;
56927;SDS011;60850;52.502;13.426;2023-05-07T06:22:31;8.13;;;5.45;;
56927;SDS011;60850;52.502;13.426;2023-05-07T06:24:59;6.72;;;5.43;;
56927;SDS011;60850;52.502;13.426;2023-05-07T06:27:25;7.72;;;5.65;;
56927;SDS011;60850;52.502;13.426;2023-05-07T06:29:53;8.20;;;5.47;;
56927;SDS011;60850;52.502;13.426;2023-05-07T06:32:21;7.72;;;5.63;;
56927;SDS011;60850;52.502;13.426;2023-05-07T06:34:48;9.38;;;5.70;;
56927;SDS011;60850;52.502;13.426;2023-05-07T06:37:15;8.02;;;5.70;;
56927;SDS011;60850;52.502;13.426;2023-05-07T06:39:42;7.28;;;4.72;;
56927;SDS011;60850;52.502;13.426;2023-05-07T06:42:09;7.82;;;5.00;;
56927;SDS011;60850;52.502;13.426;2023-05-07T06:44:36;9.50;;;5.30;;
56927;SDS011;60850;52.502;13.426;2023-05-07T06:47:02;7.70;;;4.65;;
56927;SDS011;60850;52.502;13.426;2023-05-07T06:49:32;7.80;;;4.90;;
56927;SDS011;60850;52.502;13.426;2023-05-07T06:51:58;7.43;;;4.85;;
56927;SDS011;60850;52.502;13.426;2023-05-07T06:54:25;6.80;;;4.43;;
56927;SDS011;60850;52.502;13.426;2023-05-07T06:56:52;7.60;;;5.35;;
56927;SDS011;60850;52.502;13.426;2023-05-07T06:59:19;7.22;;;4.85;;
56927;SDS011;60850;52.502;13.426;2023-05-07T07:01:46;5.07;;;4.55;;
56927;SDS011;60850;52.502;13.426;2023-05-07T07:04:13;6.82;;;4.20;;
56927;SDS011;60850;52.502;13.426;2023-05-07T07:06:41;4.35;;;3.75;;
56927;SDS011;60850;52.502;13.426;2023-05-07T07:09:08;5.47;;;3.83;;
56927;SDS011;60850;52.502;13.426;2023-05-07T07:11:35;5.88;;;3.90;;
56927;SDS011;60850;52.502;13.426;2023-05-07T07:14:02;5.70;;;3.97;;
56927;SDS011;60850;52.502;13.426;2023-05-07T07:16:30;5.85;;;4.05;;
56927;SDS011;60850;52.502;13.426;2023-05-07T07:18:57;5.40;;;3.90;;
56927;SDS011;60850;52.502;13.426;2023-05-07T07:21:24;4.80;;;3.63;;
56927;SDS011;60850;52.502;13.426;2023-05-07T07:23:52;4.18;;;3.67;;
56927;SDS011;60850;52.502;13.426;2023-05-07T07:26:19;6.50;;;3.67;;
56927;SDS011;60850;52.502;13.426;2023-05-07T07:28:46;4.93;;;3.40;;
56927;SDS011;60850;52.502;13.426;2023-05-07T07:31:13;4.35;;;3.22;;
56927;SDS011;60850;52.502;13.426;2023-05-07T07:33:40;3.95;;;3.50;;
56927;SDS011;60850;52.502;13.426;2023-05-07T07:36:07;4.38;;;3.28;;
56927;SDS011;60850;52.502;13.426;2023-05-07T07:38:34;3.17;;;2.80;;
56927;SDS011;60850;52.502;13.426;2023-05-07T07:41:02;3.45;;;2.95;;
56927;SDS011;60850;52.502;13.426;2023-05-07T07:43:30;4.85;;;3.33;;
56927;SDS011;60850;52.502;13.426;2023-05-07T07:45:56;3.42;;;3.00;;
56927;SDS011;60850;52.502;13.426;2023-05-07T07:48:23;5.82;;;3.33;;
56927;SDS011;60850;52.502;13.426;2023-05-07T07:50:50;3.47;;;3.00;;
56927;SDS011;60850;52.502;13.426;2023-05-07T07:53:17;4.40;;;2.80;;
56927;SDS011;60850;52.502;13.426;2023-05-07T07:55:44;3.15;;;2.78;;
56927;SDS011;60850;52.502;13.426;2023-05-07T07:58:13;5.38;;;2.40;;
56927;SDS011;60850;52.502;13.426;2023-05-07T08:00:40;4.05;;;2.05;;
56927;SDS011;60850;52.502;13.426;2023-05-07T08:03:08;4.28;;;2.33;;
56927;SDS011;60850;52.502;13.426;2023-05-07T08:05:35;4.20;;;1.88;;
56927;SDS011;60850;52.502;13.426;2023-05-07T08:08:04;4.65;;;2.08;;
56927;SDS011;60850;52.502;13.426;2023-05-07T08:10:31;3.38;;;1.85;;
56927;SDS011;60850;52.502;13.426;2023-05-07T08:13:00;4.78;;;2.13;;
56927;SDS011;60850;52.502;13.426;2023-05-07T08:15:28;2.35;;;2.15;;
56927;SDS011;60850;52.502;13.426;2023-05-07T08:17:55;2.70;;;2.10;;
56927;SDS011;60850;52.502;13.426;2023-05-07T08:20:23;3.97;;;2.30;;
56927;SDS011;60850;52.502;13.426;2023-05-07T08:22:51;4.78;;;2.10;;
56927;SDS011;60850;52.502;13.426;2023-05-07T08:25:18;3.33;;;2.28;;
56927;SDS011;60850;52.502;13.426;2023-05-07T08:27:45;3.38;;;2.90;;
56927;SDS011;60850;52.502;13.426;2023-05-07T08:30:12;3.08;;;2.35;;
56927;SDS011;60850;52.502;13.426;2023-05-07T08:32:41;3.50;;;2.10;;
56927;SDS011;60850;52.502;13.426;2023-05-07T08:35:08;4.28;;;2.58;;
56927;SDS011;60850;52.502;13.426;2023-05-07T08:37:35;2.28;;;2.08;;
56927;SDS011;60850;52.502;13.426;2023-05-07T08:40:02;2.70;;;2.33;;
56927;SDS011;60850;52.502;13.426;2023-05-07T08:42:30;3.33;;;2.40;;
56927;SDS011;60850;52.502;13.426;2023-05-07T08:44:57;2.50;;;2.10;;
56927;SDS011;60850;52.502;13.426;2023-05-07T08:47:29;3.45;;;2.33;;
56927;SDS011;60850;52.502;13.426;2023-05-07T08:50:02;2.63;;;2.20;;
56927;SDS011;60850;52.502;13.426;2023-05-07T08:52:31;4.45;;;2.55;;
56927;SDS011;60850;52.502;13.426;2023-05-07T08:54:58;2.92;;;2.15;;
56927;SDS011;60850;52.502;13.426;2023-05-07T08:57:26;2.63;;;2.17;;
56927;SDS011;60850;52.502;13.426;2023-05-07T08:59:53;4.47;;;2.15;;
56927;SDS011;60850;52.502;13.426;2023-05-07T09:02:20;3.97;;;2.50;;
56927;SDS011;60850;52.502;13.426;2023-05-07T09:04:47;3.03;;;2.35;;
56927;SDS011;60850;52.502;13.426;2023-05-07T09:07:15;3.72;;;2.30;;
56927;SDS011;60850;52.502;13.426;2023-05-07T09:09:43;3.58;;;2.53;;
56927;SDS011;60850;52.502;13.426;2023-05-07T09:12:11;3.58;;;2.35;;
56927;SDS011;60850;52.502;13.426;2023-05-07T09:14:37;3.22;;;2.28;;
56927;SDS011;60850;52.502;13.426;2023-05-07T09:17:05;4.70;;;2.70;;
56927;SDS011;60850;52.502;13.426;2023-05-07T09:19:32;3.58;;;2.50;;
56927;SDS011;60850;52.502;13.426;2023-05-07T09:21:59;5.65;;;2.38;;
56927;SDS011;60850;52.502;13.426;2023-05-07T09:24:27;3.33;;;2.17;;
56927;SDS011;60850;52.502;13.426;2023-05-07T09:26:59;5.00;;;2.63;;
56927;SDS011;60850;52.502;13.426;2023-05-07T09:29:26;2.60;;;2.17;;
56927;SDS011;60850;52.502;13.426;2023-05-07T09:31:54;3.90;;;2.63;;
56927;SDS011;60850;52.502;13.426;2023-05-07T09:34:21;4.10;;;2.40;;
56927;SDS011;60850;52.502;13.426;2023-05-07T09:36:48;3.38;;;2.55;;
56927;SDS011;60850;52.502;13.426;2023-05-07T09:39:15;3.72;;;2.60;;
56927;SDS011;60850;52.502;13.426;2023-05-07T09:41:44;3.92;;;2.65;;
56927;SDS011;60850;52.502;13.426;2023-05-07T09:44:12;2.65;;;2.38;;
56927;SDS011;60850;52.502;13.426;2023-05-07T09:46:41;4.07;;;2.17;;
56927;SDS011;60850;52.502;13.426;2023-05-07T09:49:11;4.28;;;2.42;;
56927;SDS011;60850;52.502;13.426;2023-05-07T09:51:43;3.28;;;2.47;;
56927;SDS011;60850;52.502;13.426;2023-05-07T09:54:14;4.05;;;2.28;;
56927;SDS011;60850;52.502;13.426;2023-05-07T09:56:43;2.45;;;1.88;;
56927;SDS011;60850;52.502;13.426;2023-05-07T09:59:12;2.15;;;1.80;;
56927;SDS011;60850;52.502;13.426;2023-05-07T10:01:41;2.33;;;2.03;;
56927;SDS011;60850;52.502;13.426;2023-05-07T10:04:08;4.00;;;1.70;;
56927;SDS011;60850;52.502;13.426;2023-05-07T10:06:36;2.95;;;1.77;;
56927;SDS011;60850;52.502;13.426;2023-05-07T10:09:04;2.80;;;1.40;;
56927;SDS011;60850;52.502;13.426;2023-05-07T10:11:34;1.67;;;1.48;;
56927;SDS011;60850;52.502;13.426;2023-05-07T10:14:03;3.60;;;1.50;;
56927;SDS011;60850;52.502;13.426;2023-05-07T10:16:32;3.10;;;1.48;;
56927;SDS011;60850;52.502;13.426;2023-05-07T10:19:02;2.15;;;1.55;;
56927;SDS011;60850;52.502;13.426;2023-05-07T10:21:29;3.90;;;2.00;;
56927;SDS011;60850;52.502;13.426;2023-05-07T10:23:58;3.88;;;1.70;;
56927;SDS011;60850;52.502;13.426;2023-05-07T10:26:27;2.05;;;1.85;;
56927;SDS011;60850;52.502;13.426;2023-05-07T10:28:58;2.30;;;1.58;;
56927;SDS011;60850;52.502;13.426;2023-05-07T10:31:54;2.65;;;1.50;;
56927;SDS011;60850;52.502;13.426;2023-05-07T10:34:26;1.73;;;1.30;;
56927;SDS011;60850;52.502;13.426;2023-05-07T10:36:56;2.97;;;1.70;;
56927;SDS011;60850;52.502;13.426;2023-05-07T10:39:23;2.40;;;1.40;;
56927;SDS011;60850;52.502;13.426;2023-05-07T10:41:51;4.07;;;1.63;;
56927;SDS011;60850;52.502;13.426;2023-05-07T10:44:26;2.25;;;1.50;;
56927;SDS011;60850;52.502;13.426;2023-05-07T10:47:05;2.75;;;1.52;;
56927;SDS011;60850;52.502;13.426;2023-05-07T10:49:34;1.77;;;1.30;;
56927;SDS011;60850;52.502;13.426;2023-05-07T10:52:12;3.58;;;1.55;;
56927;SDS011;60850;52.502;13.426;2023-05-07T10:54:41;3.10;;;1.55;;
56927;SDS011;60850;52.502;13.426;2023-05-07T11:00:01;2.63;;;1.55;;
56927;SDS011;60850;52.502;13.426;2023-05-07T11:05:34;1.75;;;1.50;;
56927;SDS011;60850;52.502;13.426;2023-05-07T11:08:02;1.85;;;1.48;;
56927;SDS011;60850;52.502;13.426;2023-05-07T11:13:16;3.05;;;1.70;;
56927;SDS011;60850;52.502;13.426;2023-05-07T11:15:44;2.63;;;1.95;;
56927;SDS011;60850;52.502;13.426;2023-05-07T11:18:14;4.15;;;1.67;;
56927;SDS011;60850;52.502;13.426;2023-05-07T11:20:45;2.45;;;1.42;;
56927;SDS011;60850;52.502;13.426;2023-05-07T11:26:14;3.33;;;1.95;;
56927;SDS011;60850;52.502;13.426;2023-05-07T11:28:42;2.25;;;1.83;;
56927;SDS011;60850;52.502;13.426;2023-05-07T11:31:10;2.63;;;1.77;;
56927;SDS011;60850;52.502;13.426;2023-05-07T11:33:38;3.42;;;1.67;;
56927;SDS011;60850;52.502;13.426;2023-05-07T11:36:07;3.85;;;1.70;;
56927;SDS011;60850;52.502;13.426;2023-05-07T11:38:35;2.45;;;1.70;;
56927;SDS011;60850;52.502;13.426;2023-05-07T11:41:04;1.50;;;1.30;;
56927;SDS011;60850;52.502;13.426;2023-05-07T11:43:31;3.00;;;1.90;;
56927;SDS011;60850;52.502;13.426;2023-05-07T11:46:08;5.82;;;2.70;;
56927;SDS011;60850;52.502;13.426;2023-05-07T11:48:35;3.75;;;1.58;;
56927;SDS011;60850;52.502;13.426;2023-05-07T11:51:05;2.58;;;1.42;;
56927;SDS011;60850;52.502;13.426;2023-05-07T11:53:37;2.17;;;1.42;;
56927;SDS011;60850;52.502;13.426;2023-05-07T11:56:08;2.50;;;1.60;;
56927;SDS011;60850;52.502;13.426;2023-05-07T11:58:36;1.98;;;1.60;;
56927;SDS011;60850;52.502;13.426;2023-05-07T12:01:02;3.30;;;1.77;;
56927;SDS011;60850;52.502;13.426;2023-05-07T12:03:30;2.30;;;1.80;;
56927;SDS011;60850;52.502;13.426;2023-05-07T12:05:57;3.67;;;1.42;;
56927;SDS011;60850;52.502;13.426;2023-05-07T12:08:27;1.67;;;1.35;;
56927;SDS011;60850;52.502;13.426;2023-05-07T12:10:54;2.58;;;1.52;;
56927;SDS011;60850;52.502;13.426;2023-05-07T12:13:22;2.80;;;1.40;;
56927;SDS011;60850;52.502;13.426;2023-05-07T12:15:50;3.33;;;1.60;;
56927;SDS011;60850;52.502;13.426;2023-05-07T12:18:17;1.98;;;1.58;;
56927;SDS011;60850;52.502;13.426;2023-05-07T12:20:45;3.63;;;1.50;;
56927;SDS011;60850;52.502;13.426;2023-05-07T12:23:12;2.33;;;1.30;;
56927;SDS011;60850;52.502;13.426;2023-05-07T12:25:41;1.83;;;1.45;;
56927;SDS011;60850;52.502;13.426;2023-05-07T12:28:12;3.70;;;1.58;;
56927;SDS011;60850;52.502;13.426;2023-05-07T12:30:40;2.85;;;1.55;;
56927;SDS011;60850;52.502;13.426;2023-05-07T12:33:09;1.80;;;1.40;;
56927;SDS011;60850;52.502;13.426;2023-05-07T12:35:36;3.13;;;1.63;;
56927;SDS011;60850;52.502;13.426;2023-05-07T12:38:07;6.43;;;1.77;;
56927;SDS011;60850;52.502;13.426;2023-05-07T12:40:35;2.47;;;1.20;;
56927;SDS011;60850;52.502;13.426;2023-05-07T12:43:04;2.47;;;1.50;;
56927;SDS011;60850;52.502;13.426;2023-05-07T12:45:31;1.40;;;1.13;;
56927;SDS011;60850;52.502;13.426;2023-05-07T12:48:03;3.00;;;1.40;;
56927;SDS011;60850;52.502;13.426;2023-05-07T12:50:33;2.67;;;1.30;;
56927;SDS011;60850;52.502;13.426;2023-05-07T12:53:00;1.50;;;1.27;;
56927;SDS011;60850;52.502;13.426;2023-05-07T12:55:31;3.33;;;1.42;;
56927;SDS011;60850;52.502;13.426;2023-05-07T12:58:00;2.42;;;1.40;;
56927;SDS011;60850;52.502;13.426;2023-05-07T13:00:38;1.25;;;1.02;;
56927;SDS011;60850;52.502;13.426;2023-05-07T13:03:05;1.80;;;1.20;;
56927;SDS011;60850;52.502;13.426;2023-05-07T13:05:32;2.45;;;1.25;;
56927;SDS011;60850;52.502;13.426;2023-05-07T13:07:59;2.58;;;0.95;;
56927;SDS011;60850;52.502;13.426;2023-05-07T13:10:26;1.23;;;1.00;;
56927;SDS011;60850;52.502;13.426;2023-05-07T13:12:54;1.83;;;1.38;;
56927;SDS011;60850;52.502;13.426;2023-05-07T13:15:21;2.33;;;1.10;;
56927;SDS011;60850;52.502;13.426;2023-05-07T13:17:50;1.95;;;1.10;;
56927;SDS011;60850;52.502;13.426;2023-05-07T13:20:16;2.00;;;1.40;;
56927;SDS011;60850;52.502;13.426;2023-05-07T13:22:43;1.55;;;0.98;;
56927;SDS011;60850;52.502;13.426;2023-05-07T13:25:11;1.85;;;1.27;;
56927;SDS011;60850;52.502;13.426;2023-05-07T13:27:37;2.22;;;1.10;;
56927;SDS011;60850;52.502;13.426;2023-05-07T13:30:05;1.70;;;1.02;;
56927;SDS011;60850;52.502;13.426;2023-05-07T13:32:33;2.67;;;1.55;;
56927;SDS011;60850;52.502;13.426;2023-05-07T13:35:01;2.28;;;1.20;;
56927;SDS011;60850;52.502;13.426;2023-05-07T13:37:29;1.88;;;1.15;;
56927;SDS011;60850;52.502;13.426;2023-05-07T13:39:55;2.85;;;1.40;;
56927;SDS011;60850;52.502;13.426;2023-05-07T13:42:22;1.40;;;1.15;;
56927;SDS011;60850;52.502;13.426;2023-05-07T13:44:49;2.28;;;1.42;;
56927;SDS011;60850;52.502;13.426;2023-05-07T13:47:16;4.20;;;1.70;;
56927;SDS011;60850;52.502;13.426;2023-05-07T13:49:43;3.35;;;1.50;;
56927;SDS011;60850;52.502;13.426;2023-05-07T13:52:11;2.83;;;1.40;;
56927;SDS011;60850;52.502;13.426;2023-05-07T13:54:38;1.92;;;1.17;;
56927;SDS011;60850;52.502;13.426;2023-05-07T13:57:05;2.40;;;1.17;;
56927;SDS011;60850;52.502;13.426;2023-05-07T13:59:32;2.53;;;1.50;;
56927;SDS011;60850;52.502;13.426;2023-05-07T14:01:59;2.75;;;1.27;;
56927;SDS011;60850;52.502;13.426;2023-05-07T14:04:26;2.08;;;1.33;;
56927;SDS011;60850;52.502;13.426;2023-05-07T14:06:53;1.85;;;1.40;;
56927;SDS011;60850;52.502;13.426;2023-05-07T14:09:21;2.33;;;1.40;;
56927;SDS011;60850;52.502;13.426;2023-05-07T14:11:48;2.75;;;1.75;;
56927;SDS011;60850;52.502;13.426;2023-05-07T14:14:16;2.22;;;1.42;;
56927;SDS011;60850;52.502;13.426;2023-05-07T14:16:43;1.67;;;1.20;;
56927;SDS011;60850;52.502;13.426;2023-05-07T14:19:10;2.97;;;1.60;;
56927;SDS011;60850;52.502;13.426;2023-05-07T14:21:37;3.05;;;1.52;;
56927;SDS011;60850;52.502;13.426;2023-05-07T14:24:06;1.60;;;1.40;;
56927;SDS011;60850;52.502;13.426;2023-05-07T14:26:35;3.58;;;1.42;;
56927;SDS011;60850;52.502;13.426;2023-05-07T14:29:01;2.30;;;1.27;;
56927;SDS011;60850;52.502;13.426;2023-05-07T14:31:29;3.50;;;2.00;;
56927;SDS011;60850;52.502;13.426;2023-05-07T14:33:55;3.33;;;1.60;;
56927;SDS011;60850;52.502;13.426;2023-05-07T14:36:24;1.98;;;1.40;;
56927;SDS011;60850;52.502;13.426;2023-05-07T14:38:52;1.38;;;1.27;;
56927;SDS011;60850;52.502;13.426;2023-05-07T14:41:20;2.63;;;1.30;;
56927;SDS011;60850;52.502;13.426;2023-05-07T14:43:48;2.58;;;1.08;;
56927;SDS011;60850;52.502;13.426;2023-05-07T14:46:16;4.10;;;1.23;;